createdAt,value
2018-10-16T00:02:23.298Z,9.4
2018-10-16T00:07:25.481Z,6.6
2018-10-16T00:12:27.894Z,6.8
2018-10-16T00:17:30.139Z,6.3
2018-10-16T00:22:33.557Z,9.1
2018-10-16T00:27:34.763Z,7.3
2018-10-16T00:32:37.172Z,11.5
2018-10-16T00:37:39.305Z,5.5
2018-10-16T00:42:41.607Z,8.3
2018-10-16T00:47:44.032Z,5.8
2018-10-16T00:52:46.306Z,9.3
2018-10-16T00:57:48.528Z,11.1
2018-10-16T01:02:50.847Z,9.8
2018-10-16T01:07:53.096Z,9.2
2018-10-16T01:12:55.364Z,8
2018-10-16T01:17:57.635Z,6.9
2018-10-16T01:22:59.899Z,6.4
2018-10-16T01:28:02.202Z,16.299999
2018-10-16T01:33:04.823Z,8
2018-10-16T01:38:08.051Z,10
2018-10-16T01:43:10.552Z,11.2
2018-10-16T01:48:11.437Z,11
2018-10-16T01:53:13.713Z,11.4
2018-10-16T01:58:16.014Z,9
2018-10-16T02:08:20.588Z,9.2
2018-10-16T02:13:22.918Z,7.8
2018-10-16T02:18:25.247Z,9.2
2018-10-16T02:23:27.529Z,7.9
2018-10-16T02:33:32.186Z,10.4
2018-10-16T02:38:34.412Z,9.3
2018-10-16T02:43:36.667Z,9.1
2018-10-16T02:48:40.246Z,8.4
2018-10-16T02:53:41.250Z,9.2
2018-10-16T02:58:43.526Z,14
2018-10-16T03:03:45.824Z,5.8
2018-10-16T03:08:48.072Z,9
2018-10-16T03:13:50.464Z,8.3
2018-10-16T03:18:52.651Z,8.2
2018-10-16T03:23:54.938Z,10.8
2018-10-16T03:28:57.283Z,5.7
2018-10-16T03:33:59.548Z,8.4
2018-10-16T03:39:01.857Z,9.3
2018-10-16T03:44:04.181Z,6.4
2018-10-16T03:49:06.517Z,8
2018-10-16T03:54:08.767Z,8.2
2018-10-16T03:59:11.104Z,6.5
2018-10-16T04:04:13.421Z,8.5
2018-10-16T04:09:15.775Z,9.5
2018-10-16T04:14:17.947Z,9.2
2018-10-16T04:19:20.355Z,7.8
2018-10-16T04:24:22.515Z,8.1
2018-10-16T04:29:24.919Z,12.1
2018-10-16T04:34:27.117Z,9.8
2018-10-16T04:39:29.513Z,10.5
2018-10-16T04:44:31.713Z,10.5
2018-10-16T04:49:34.045Z,11.6
2018-10-16T04:54:36.252Z,7.9
2018-10-16T04:59:38.597Z,12.2
2018-10-16T05:04:40.890Z,8.1
2018-10-16T05:09:43.293Z,8.3
2018-10-16T05:14:45.584Z,8.2
2018-10-16T05:19:47.844Z,10.3
2018-10-16T05:24:50.066Z,8.5
2018-10-16T05:29:52.466Z,8.6
2018-10-16T05:34:54.715Z,6.9
2018-10-16T05:39:56.895Z,10.8
2018-10-16T05:44:59.205Z,11.6
2018-10-16T05:50:01.589Z,11.2
2018-10-16T05:55:03.869Z,9.7
2018-10-16T06:00:06.063Z,11.5
2018-10-16T06:05:08.451Z,12.4
2018-10-16T06:10:10.835Z,9.7
2018-10-16T06:15:13.052Z,10.1
2018-10-16T06:20:15.412Z,8.5
2018-10-16T06:25:17.759Z,9.9
2018-10-16T06:30:20.058Z,4.8
2018-10-16T06:35:22.133Z,5.1
2018-10-16T06:40:24.561Z,7.1
2018-10-16T06:45:26.790Z,10.5
2018-10-16T06:50:29.009Z,8.5
2018-10-16T06:55:31.317Z,10
2018-10-16T07:00:33.615Z,7.6
2018-10-16T07:05:35.964Z,8
2018-10-16T07:10:38.191Z,7.8
2018-10-16T07:15:40.474Z,9.6
2018-10-16T07:20:42.835Z,9
2018-10-16T07:25:45.128Z,8
2018-10-16T07:30:47.457Z,6.7
2018-10-16T07:35:49.679Z,11.6
2018-10-16T07:40:52.043Z,12.3
2018-10-16T07:45:54.266Z,6.9
2018-10-16T07:50:56.584Z,7.9
2018-10-16T07:55:58.804Z,10.3
2018-10-16T08:01:01.152Z,8
2018-10-16T08:06:03.475Z,9.5
2018-10-16T08:11:05.870Z,9
2018-10-16T08:16:08.038Z,8.8
2018-10-16T08:21:10.417Z,8.7
2018-10-16T08:26:12.625Z,8.4
2018-10-16T08:31:14.976Z,9.5
2018-10-16T08:36:17.347Z,8.8
2018-10-16T08:41:19.517Z,10.6
2018-10-16T08:46:21.801Z,8.3
2018-10-16T08:51:24.196Z,8.1
2018-10-16T08:56:26.361Z,9.6
2018-10-16T09:01:28.816Z,8.8
2018-10-16T09:06:31.051Z,7.5
2018-10-16T09:11:33.349Z,5.4
2018-10-16T09:16:35.634Z,7.6
2018-10-16T09:21:37.926Z,6.8
2018-10-16T09:26:40.180Z,9.1
2018-10-16T09:31:42.489Z,4.1
2018-10-16T09:36:44.759Z,5.8
2018-10-16T09:41:47.005Z,6.6
2018-10-16T09:46:49.440Z,5.1
2018-10-16T09:51:51.614Z,5.3
2018-10-16T09:56:53.968Z,3.9
2018-10-16T10:01:56.275Z,4
2018-10-16T10:06:58.609Z,4.4
2018-10-16T10:12:00.875Z,3.4
2018-10-16T10:17:03.132Z,4.8
2018-10-16T10:22:05.516Z,5.1
2018-10-16T10:27:07.648Z,4.4
2018-10-16T10:32:09.974Z,3.1
2018-10-16T10:37:12.358Z,4.1
2018-10-16T10:42:15.745Z,5
2018-10-16T10:47:16.861Z,2.8
2018-10-16T10:52:19.215Z,4.2
2018-10-16T10:57:21.486Z,3.6
2018-10-16T11:02:23.753Z,3.2
2018-10-16T11:07:26.053Z,2.5
2018-10-16T11:12:28.358Z,3.8
2018-10-16T11:17:30.783Z,5.3
2018-10-16T11:22:32.993Z,4.9
2018-10-16T11:27:35.216Z,4.9
2018-10-16T11:32:37.552Z,5.2
2018-10-16T11:37:39.860Z,4.6
2018-10-16T11:42:42.279Z,3.2
2018-10-16T11:47:44.442Z,2.3
2018-10-16T11:52:46.775Z,3.9
2018-10-16T11:57:48.990Z,3.9
2018-10-16T12:02:51.455Z,3.4
2018-10-16T12:07:53.754Z,5.5
2018-10-16T12:12:55.881Z,5.9
2018-10-16T12:17:58.196Z,5.7
2018-10-16T12:23:00.495Z,4.9
2018-10-16T12:28:03.080Z,5.2
2018-10-16T12:33:05.187Z,5.1
2018-10-16T12:38:07.315Z,4.6
2018-10-16T12:43:13.946Z,4.8
2018-10-16T12:48:12.207Z,5.1
2018-10-16T12:53:14.372Z,5.3
2018-10-16T12:58:16.485Z,4.9
2018-10-16T13:03:18.781Z,3.9
2018-10-16T13:08:21.215Z,4.3
2018-10-16T13:13:23.505Z,5.1
2018-10-16T13:18:25.695Z,5.2
2018-10-16T13:23:28.009Z,3.2
2018-10-16T13:28:30.339Z,4.5
2018-10-16T13:33:32.544Z,3.5
2018-10-16T13:38:34.859Z,4.9
2018-10-16T13:43:37.174Z,4.6
2018-10-16T13:48:39.499Z,4.7
2018-10-16T13:53:41.816Z,3.8
2018-10-16T13:58:44.116Z,4.2
2018-10-16T14:03:46.327Z,4.7
2018-10-16T14:08:48.731Z,5.1
2018-10-16T14:13:52.132Z,4.7
2018-10-16T14:18:53.279Z,3.8
2018-10-16T14:23:55.472Z,3
2018-10-16T14:28:58.224Z,3.6
2018-10-16T14:34:00.154Z,3.4
2018-10-16T14:39:03.617Z,3.5
2018-10-16T14:44:04.801Z,4.5
2018-10-16T14:49:07.023Z,5.3
2018-10-16T14:54:09.340Z,4.4
2018-10-16T14:59:11.732Z,3.4
2018-10-16T15:04:13.971Z,3.7
2018-10-16T15:09:16.248Z,2.5
2018-10-16T15:14:18.622Z,3.3
2018-10-16T15:19:20.857Z,3.7
2018-10-16T15:24:23.026Z,3.4
2018-10-16T15:29:25.323Z,3
2018-10-16T15:34:27.687Z,3.9
2018-10-16T15:39:30.004Z,3.1
2018-10-16T15:44:32.318Z,3
2018-10-16T15:49:35.714Z,2.6
2018-10-16T15:54:36.891Z,3.5
2018-10-16T15:59:39.114Z,3.6
2018-10-16T16:04:41.352Z,4.7
2018-10-16T16:09:43.755Z,6.3
2018-10-16T16:14:45.950Z,3.2
2018-10-16T16:19:48.265Z,3.2
2018-10-16T16:24:50.738Z,3.8
2018-10-16T16:29:52.898Z,3.6
2018-10-16T16:34:55.424Z,3.9
2018-10-16T16:39:57.545Z,2.7
2018-10-16T16:44:59.835Z,2.5
2018-10-16T16:50:02.368Z,5
2018-10-16T16:55:04.458Z,2.9
2018-10-16T17:00:06.667Z,4.9
2018-10-16T17:05:10.286Z,3.2
2018-10-16T17:10:11.307Z,2.9
2018-10-16T17:15:13.629Z,3.3
2018-10-16T17:20:15.830Z,4.2
2018-10-16T17:25:18.337Z,2.9
2018-10-16T17:30:20.538Z,2.9
2018-10-16T17:35:22.728Z,3.5
2018-10-16T17:40:25.030Z,4.2
2018-10-16T17:45:27.309Z,3.3
2018-10-16T17:50:29.600Z,4.1
2018-10-16T17:55:31.950Z,5.3
2018-10-16T18:00:34.543Z,2.5
2018-10-16T18:05:36.571Z,3.9
2018-10-16T18:10:38.794Z,2.3
2018-10-16T18:15:41.078Z,4.8
2018-10-16T18:20:43.502Z,5.4
2018-10-16T18:25:45.696Z,3.8
2018-10-16T18:30:48.002Z,3.7
2018-10-16T18:35:50.204Z,3.3
2018-10-16T18:40:53.641Z,3.6
2018-10-16T18:45:54.828Z,5.4
2018-10-16T18:50:57.193Z,3.6
2018-10-16T18:55:59.446Z,4.6
2018-10-16T19:01:01.801Z,3.8
2018-10-16T19:06:04.020Z,5.8
2018-10-16T19:11:06.293Z,4.3
2018-10-16T19:16:08.637Z,3.3
2018-10-16T19:21:10.931Z,4.3
2018-10-16T19:26:13.207Z,4.6
2018-10-16T19:31:15.470Z,3.4
2018-10-16T19:36:17.812Z,3.2
2018-10-16T19:41:20.129Z,4.4
2018-10-16T19:46:22.343Z,3
2018-10-16T19:51:24.638Z,5.8
2018-10-16T19:56:26.915Z,4.2
2018-10-16T20:01:29.289Z,3.3
2018-10-16T20:06:31.481Z,4.7
2018-10-16T20:11:33.795Z,4.9
2018-10-16T20:16:36.137Z,4.1
2018-10-16T20:21:38.542Z,5.9
2018-10-16T20:26:40.687Z,6.2
2018-10-16T20:31:42.986Z,5.9
2018-10-16T20:36:45.268Z,4.8
2018-10-16T20:41:49.114Z,4.9
2018-10-16T20:46:50.974Z,5.3
2018-10-16T20:51:52.191Z,3.4
2018-10-16T20:56:54.557Z,4.7
2018-10-16T21:01:56.771Z,5.5
2018-10-16T21:06:59.174Z,4.2
2018-10-16T21:12:01.336Z,6.5
2018-10-16T21:17:03.700Z,6.3
2018-10-16T21:22:05.939Z,3.9
2018-10-16T21:27:08.221Z,5.3
2018-10-16T21:32:10.509Z,4.1
2018-10-16T21:37:12.909Z,4
2018-10-16T21:42:15.130Z,5.5
2018-10-16T21:47:17.511Z,5.5
2018-10-16T21:52:19.923Z,7.1
2018-10-16T21:57:21.987Z,4.6
2018-10-16T22:02:24.327Z,6.9
2018-10-16T22:07:26.569Z,8.4
2018-10-16T22:12:28.901Z,6
2018-10-16T22:17:33.048Z,6.1
2018-10-16T22:22:33.514Z,5.2
2018-10-16T22:27:35.789Z,6.5
2018-10-16T22:32:38.034Z,7.6
2018-10-16T22:37:40.334Z,6.6
2018-10-16T22:42:42.630Z,6
2018-10-16T22:47:44.993Z,5.2
2018-10-16T22:52:47.310Z,6
2018-10-16T22:57:49.661Z,10.7
2018-10-16T23:02:51.835Z,6
2018-10-16T23:07:54.135Z,7.7
2018-10-16T23:12:56.414Z,5.7
2018-10-16T23:17:58.749Z,9.7
2018-10-16T23:23:01.092Z,9
2018-10-16T23:28:03.305Z,7
2018-10-16T23:33:05.625Z,5.6
2018-10-16T23:38:07.850Z,7
2018-10-16T23:43:10.385Z,8.1
2018-10-16T23:48:14.035Z,9.5
2018-10-16T23:53:14.916Z,8.1
2018-10-16T23:58:17.126Z,12.2
